Webcam

2020/04/07 08:50 EBBR 070850Z 08004KT 020V120 CAVOK 13/09 Q1031 NOSIG

Webcam

--- Refresh now ---